Terminal Aerodrome Forecast
Issued by NWS

Home | Current Version | Previous Version | Text Only | Print | Product List | Glossary On
Versions: 1 2 3 4 5 6 7 8 9 10 11 12 13
000
FTUS45 KRIW 290500
TAFCOD
TAF
KCOD 290532Z 2906/3006 32006KT P6SM BKN050
     FM291100 19005KT P6SM SCT050
     FM291600 12007KT P6SM SKC
     FM300300 21006KT P6SM SKC
      AMD LTD TO CLD VIS AND WIND=

USA.gov is the U.S. government's official web portal to all federal, state and local government web resources and services.